Time;durP1;ratioP1;P1;durP2;ratioP2;P2;SDS_P1;SDS_P2;PMS_P1;PMS_P2;Temp;Humidity;BMP_temperature;BMP_pressure;BME280_temperature;BME280_humidity;BME280_pressure;Samples;Min_cycle;Max_cycle;Signal;HPM_P1;HPM_P2
2023/04/15 00:01:24;;;;;;;3.90;2.38;;;;;;;7.93;100.00;99022.75;6319750;28;20063;-83
2023/04/15 00:04:25;;;;;;;2.25;1.73;;;;;;;7.90;100.00;99017.78;6319618;28;20055;-84
2023/04/15 00:07:26;;;;;;;4.00;2.57;;;;;;;7.97;100.00;99026.81;6319357;28;20744;-83
2023/04/15 00:10:27;;;;;;;3.85;2.10;;;;;;;8.02;100.00;99020.41;6319338;28;20113;-83
2023/04/15 00:13:28;;;;;;;2.80;2.05;;;;;;;8.03;100.00;99008.22;6320338;28;20105;-83
2023/04/15 00:16:29;;;;;;;2.88;2.08;;;;;;;8.03;100.00;99003.03;6323658;28;20048;-83
2023/04/15 00:19:31;;;;;;;4.22;2.20;;;;;;;7.96;100.00;98999.19;6312790;28;20044;-83
2023/04/15 00:22:32;;;;;;;4.65;2.33;;;;;;;8.06;100.00;99014.06;6298465;28;20442;-83
2023/04/15 00:25:33;;;;;;;6.05;2.40;;;;;;;8.03;100.00;99016.88;6298389;28;20048;-83
2023/04/15 00:28:34;;;;;;;3.75;2.10;;;;;;;8.04;100.00;99012.50;6298456;28;20413;-83
2023/04/15 00:31:35;;;;;;;3.25;2.10;;;;;;;8.06;100.00;99008.03;6298262;28;20098;-83
2023/04/15 00:34:36;;;;;;;6.07;2.17;;;;;;;8.15;100.00;99017.78;6298149;28;20127;-84
2023/04/15 00:37:37;;;;;;;3.83;1.77;;;;;;;8.22;100.00;99018.25;6298127;28;20523;-83
2023/04/15 00:40:38;;;;;;;5.13;2.75;;;;;;;8.22;100.00;99013.03;6298237;28;20056;-83
2023/04/15 00:43:39;;;;;;;3.13;1.92;;;;;;;8.20;100.00;99014.91;6298167;28;20055;-83
2023/04/15 00:46:42;;;;;;;2.22;2.00;;;;;;;8.23;100.00;99012.09;6298202;28;20086;-84
2023/04/15 00:49:43;;;;;;;2.90;2.13;;;;;;;8.20;100.00;99007.94;6297825;28;20386;-84
2023/04/15 00:52:44;;;;;;;7.75;2.30;;;;;;;8.26;100.00;99007.53;6297685;28;20079;-83
2023/04/15 00:55:45;;;;;;;7.03;2.17;;;;;;;8.27;100.00;99010.94;6297590;28;20101;-83
2023/04/15 00:58:47;;;;;;;3.20;1.77;;;;;;;8.18;100.00;98996.81;6297325;28;20493;-83
2023/04/15 01:01:48;;;;;;;3.37;1.80;;;;;;;8.34;100.00;99008.75;6297641;28;20135;-83
2023/04/15 01:04:49;;;;;;;3.15;1.80;;;;;;;8.40;100.00;99023.94;6297474;28;20272;-84
2023/04/15 01:07:50;;;;;;;2.22;1.63;;;;;;;8.34;100.00;99014.81;6297359;28;20388;-83
2023/04/15 01:10:51;;;;;;;4.82;2.03;;;;;;;8.28;100.00;99013.44;6297599;28;20497;-83
2023/04/15 01:13:52;;;;;;;4.40;1.88;;;;;;;8.26;100.00;99017.91;6297426;28;20052;-84
2023/04/15 01:16:52;;;;;;;2.97;1.90;;;;;;;8.24;100.00;99016.38;6297346;28;20080;-84
2023/04/15 01:19:56;;;;;;;2.13;1.70;;;;;;;8.24;100.00;99012.00;6297078;28;20051;-83
2023/04/15 01:22:57;;;;;;;2.88;1.88;;;;;;;8.12;100.00;99005.03;6298578;28;20044;-83
2023/04/15 01:25:58;;;;;;;3.53;1.92;;;;;;;8.06;100.00;99014.06;6296116;28;20386;-83
2023/04/15 01:29:00;;;;;;;3.78;1.85;;;;;;;8.04;100.00;99007.31;6297168;28;20131;-83
2023/04/15 01:32:01;;;;;;;4.13;2.05;;;;;;;8.03;100.00;99026.41;6296918;28;20060;-83
2023/04/15 01:35:01;;;;;;;2.22;1.70;;;;;;;7.90;100.00;99007.41;6297920;28;20499;-83
2023/04/15 01:38:07;;;;;;;2.92;1.90;;;;;;;7.90;100.00;99016.00;6297725;28;20048;-83
2023/04/15 01:41:08;;;;;;;3.25;1.83;;;;;;;7.83;100.00;99013.00;6296538;28;20393;-83
2023/04/15 01:44:09;;;;;;;4.22;1.75;;;;;;;7.88;100.00;99031.69;6296752;28;20048;-82
2023/04/15 01:47:11;;;;;;;2.78;1.90;;;;;;;7.80;100.00;99030.53;6296581;28;20128;-83
2023/04/15 01:50:12;;;;;;;2.05;1.85;;;;;;;7.64;100.00;99002.19;6296384;28;20051;-83
2023/04/15 01:53:12;;;;;;;2.22;1.65;;;;;;;7.59;100.00;99006.81;6296267;28;20049;-83
2023/04/15 01:56:13;;;;;;;3.60;2.60;;;;;;;7.66;100.00;99006.34;6296357;28;20048;-83
2023/04/15 01:59:14;;;;;;;2.83;2.28;;;;;;;7.72;100.00;99023.28;6319120;28;20403;-83
2023/04/15 02:02:16;;;;;;;3.22;2.05;;;;;;;7.65;100.00;99014.22;6315172;28;20044;-82
2023/04/15 02:05:17;;;;;;;2.95;1.80;;;;;;;7.63;100.00;99016.91;6320370;28;20054;-85
2023/04/15 02:08:17;;;;;;;3.50;2.05;;;;;;;7.53;100.00;99010.63;6317451;28;20411;-85
2023/04/15 02:11:18;;;;;;;2.35;1.85;;;;;;;7.50;100.00;99010.03;6328723;28;20048;-85
2023/04/15 02:14:19;;;;;;;3.47;2.30;;;;;;;7.52;100.00;99011.59;6321515;28;20471;-85
2023/04/15 02:17:20;;;;;;;2.42;1.92;;;;;;;7.38;100.00;98996.06;6330290;28;20050;-85
2023/04/15 02:20:22;;;;;;;2.97;1.95;;;;;;;7.46;100.00;99014.59;6312825;28;20452;-86
2023/04/15 02:23:23;;;;;;;2.90;1.90;;;;;;;7.33;100.00;99013.69;6311960;28;20046;-86
2023/04/15 02:26:24;;;;;;;6.85;1.95;;;;;;;7.26;100.00;99018.44;6328083;28;20043;-86
2023/04/15 02:29:25;;;;;;;2.08;1.70;;;;;;;7.22;100.00;99012.63;6317562;28;20055;-86
2023/04/15 02:32:26;;;;;;;2.97;1.90;;;;;;;7.17;100.00;99006.91;6326202;28;20514;-86
2023/04/15 02:35:27;;;;;;;2.60;1.67;;;;;;;7.18;100.00;99011.16;6318916;28;20072;-86
2023/04/15 02:38:28;;;;;;;4.72;2.05;;;;;;;7.06;100.00;98999.81;6305237;28;20415;-86
2023/04/15 02:41:29;;;;;;;2.85;1.85;;;;;;;7.02;100.00;98997.47;6326766;28;20051;-85
2023/04/15 02:44:31;;;;;;;2.25;1.77;;;;;;;6.99;100.00;99008.06;6321108;28;20039;-85
2023/04/15 02:47:32;;;;;;;1.88;1.52;;;;;;;7.02;100.00;99005.25;6326045;28;20329;-84
2023/04/15 02:50:33;;;;;;;2.13;1.67;;;;;;;7.02;100.00;99006.13;6337827;28;20456;-85
2023/04/15 02:53:34;;;;;;;4.93;2.00;;;;;;;6.96;100.00;98985.75;6302693;28;20048;-85
2023/04/15 02:56:34;;;;;;;3.72;1.77;;;;;;;7.02;100.00;99005.25;6303982;28;20483;-82
2023/04/15 02:59:35;;;;;;;2.67;1.88;;;;;;;6.92;100.00;98992.06;6302795;28;20056;-82
2023/04/15 03:02:37;;;;;;;3.38;1.85;;;;;;;6.95;100.00;98991.84;6321482;28;20040;-85
2023/04/15 03:05:38;;;;;;;12.10;1.85;;;;;;;7.01;100.00;99004.44;6326166;28;20051;-82
2023/04/15 03:08:39;;;;;;;4.40;1.98;;;;;;;7.01;100.00;99006.22;6324302;28;20056;-82
2023/04/15 03:11:40;;;;;;;2.85;1.63;;;;;;;7.07;100.00;99011.81;6303286;28;20044;-82
2023/04/15 03:14:41;;;;;;;2.55;1.90;;;;;;;7.09;100.00;99010.91;6302828;28;20079;-82
2023/04/15 03:17:42;;;;;;;2.35;2.08;;;;;;;7.07;100.00;99006.66;6303052;28;20051;-83
2023/04/15 03:20:43;;;;;;;4.07;2.47;;;;;;;7.12;100.00;99008.94;6302832;28;20048;-83
2023/04/15 03:23:44;;;;;;;4.35;2.40;;;;;;;7.12;100.00;99000.34;6308648;28;20376;-83
2023/04/15 03:26:45;;;;;;;9.82;2.55;;;;;;;7.05;100.00;98995.53;6338877;28;20412;-83
2023/04/15 03:29:46;;;;;;;3.28;2.35;;;;;;;7.02;100.00;98987.09;6327721;28;20052;-83
2023/04/15 03:32:47;;;;;;;3.67;2.40;;;;;;;7.05;100.00;98999.91;6309684;28;20548;-83
2023/04/15 03:35:50;;;;;;;6.82;2.33;;;;;;;7.08;100.00;99010.06;6327027;28;20048;-83
2023/04/15 03:38:51;;;;;;;3.80;2.05;;;;;;;6.96;100.00;98997.88;6328017;28;20048;-83
2023/04/15 03:41:52;;;;;;;2.67;2.15;;;;;;;6.99;100.00;99002.88;6327772;28;20055;-83
2023/04/15 03:44:53;;;;;;;3.50;1.65;;;;;;;7.00;100.00;99007.13;6327951;28;20044;-83
2023/04/15 03:47:54;;;;;;;4.05;2.72;;;;;;;6.88;100.00;99003.56;6346085;28;20484;-82
2023/04/15 03:50:55;;;;;;;4.03;2.15;;;;;;;6.92;100.00;99009.34;6331083;28;20176;-83
2023/04/15 03:53:55;;;;;;;4.22;2.45;;;;;;;6.86;100.00;99021.78;6332562;28;20046;-83
2023/04/15 03:56:56;;;;;;;2.30;1.80;;;;;;;6.91;100.00;99020.69;6332531;28;20059;-83
2023/04/15 03:59:57;;;;;;;4.47;2.10;;;;;;;6.86;100.00;99018.38;6324035;28;20518;-83
2023/04/15 04:02:58;;;;;;;2.67;1.98;;;;;;;6.92;100.00;99020.59;6324355;28;20048;-83
2023/04/15 04:05:59;;;;;;;4.25;2.20;;;;;;;6.92;100.00;99030.09;6325429;28;20054;-83
2023/04/15 04:09:00;;;;;;;2.97;2.10;;;;;;;6.87;100.00;99022.63;6324139;28;20105;-83
2023/04/15 04:12:01;;;;;;;4.15;2.38;;;;;;;6.89;100.00;99025.13;6324153;28;20047;-83
2023/04/15 04:15:11;;;;;;;4.72;2.72;;;;;;;6.96;100.00;99039.38;6324078;28;20077;-83
2023/04/15 04:18:12;;;;;;;3.70;2.45;;;;;;;6.94;100.00;99043.81;6323972;28;20081;-83
2023/04/15 04:21:13;;;;;;;2.80;2.20;;;;;;;6.96;100.00;99048.00;6316248;28;20048;-83
2023/04/15 04:24:13;;;;;;;1.88;1.55;;;;;;;6.97;100.00;99046.22;6298828;28;20052;-83
2023/04/15 04:27:14;;;;;;;4.18;2.53;;;;;;;6.96;100.00;99026.38;6298102;28;20052;-85
2023/04/15 04:30:15;;;;;;;2.22;1.95;;;;;;;7.17;100.00;99053.59;6298780;28;20516;-85
2023/04/15 04:33:16;;;;;;;3.65;2.60;;;;;;;7.19;100.00;99043.97;6298189;28;20135;-83
2023/04/15 04:36:17;;;;;;;3.80;2.33;;;;;;;7.21;100.00;99039.50;6298237;28;20484;-83
2023/04/15 04:39:18;;;;;;;5.05;3.08;;;;;;;7.19;100.00;99033.59;6297869;28;20455;-83
2023/04/15 04:42:19;;;;;;;4.45;2.55;;;;;;;7.28;100.00;99054.69;6298449;28;20088;-83
2023/04/15 04:45:20;;;;;;;4.22;2.47;;;;;;;7.33;100.00;99055.22;6298315;28;20059;-83
2023/04/15 04:48:21;;;;;;;3.63;2.55;;;;;;;7.32;100.00;99054.38;6298058;28;20056;-84
2023/04/15 04:51:22;;;;;;;6.18;2.20;;;;;;;7.38;100.00;99055.75;6297751;28;20492;-83
2023/04/15 04:54:23;;;;;;;2.25;1.80;;;;;;;7.44;100.00;99058.78;6299076;28;20063;-83
2023/04/15 04:57:24;;;;;;;4.20;2.17;;;;;;;7.48;100.00;99064.63;6298310;28;20091;-83
2023/04/15 05:00:25;;;;;;;3.90;2.58;;;;;;;7.50;100.00;99065.38;6322998;28;20219;-83
2023/04/15 05:03:26;;;;;;;5.72;2.85;;;;;;;7.55;100.00;99072.84;6330272;28;20048;-83
2023/04/15 05:06:29;;;;;;;6.55;3.05;;;;;;;7.62;100.00;99079.34;6331448;28;20100;-83
2023/04/15 05:09:31;;;;;;;3.72;2.53;;;;;;;7.66;100.00;99075.59;6326873;28;20079;-83
2023/04/15 05:12:32;;;;;;;7.35;4.50;;;;;;;7.55;100.00;99055.50;6331107;28;20044;-83
2023/04/15 05:15:33;;;;;;;6.70;3.55;;;;;;;7.68;100.00;99073.75;6348911;28;20053;-83
2023/04/15 05:18:35;;;;;;;5.55;3.53;;;;;;;7.73;100.00;99076.03;6349050;28;20051;-83
2023/04/15 05:21:36;;;;;;;4.67;3.13;;;;;;;7.75;100.00;99064.59;6316106;28;20052;-83
2023/04/15 05:24:37;;;;;;;4.85;3.05;;;;;;;7.92;100.00;99071.28;6307796;28;20292;-83
2023/04/15 05:27:38;;;;;;;3.40;2.42;;;;;;;8.12;100.00;99080.38;6315944;28;20411;-84
2023/04/15 05:30:39;;;;;;;4.88;2.50;;;;;;;8.34;100.00;99084.13;6335652;28;20057;-84
2023/04/15 05:33:40;;;;;;;4.28;2.45;;;;;;;8.40;100.00;99083.72;6313571;28;20040;-83
2023/04/15 05:36:41;;;;;;;5.35;2.97;;;;;;;8.49;100.00;99080.53;6305557;28;20086;-84
2023/04/15 05:39:42;;;;;;;4.13;2.80;;;;;;;8.68;100.00;99077.50;6323240;28;20056;-84
2023/04/15 05:42:43;;;;;;;3.15;2.75;;;;;;;8.79;100.00;99090.63;6305195;28;20074;-83
2023/04/15 05:45:43;;;;;;;4.88;3.05;;;;;;;8.86;100.00;99089.25;6304775;28;20492;-85
2023/04/15 05:48:44;;;;;;;6.00;2.95;;;;;;;8.96;100.00;99089.44;6304281;28;20397;-86
2023/04/15 05:51:46;;;;;;;5.45;3.00;;;;;;;9.01;100.00;99089.94;6304827;28;20052;-83
2023/04/15 05:54:47;;;;;;;4.38;2.22;;;;;;;9.04;100.00;99096.72;6304349;28;20411;-84
2023/04/15 05:57:48;;;;;;;1.95;1.45;;;;;;;9.17;100.00;99096.69;6304801;28;20060;-85
2023/04/15 06:00:49;;;;;;;2.45;1.83;;;;;;;9.05;100.00;99077.56;6303705;28;20117;-84
2023/04/15 06:03:50;;;;;;;3.40;2.45;;;;;;;9.22;100.00;99105.00;6308250;28;20050;-85
2023/04/15 06:06:51;;;;;;;4.38;2.28;;;;;;;9.35;100.00;99099.75;6327747;28;20055;-85
2023/04/15 06:09:52;;;;;;;4.18;2.08;;;;;;;9.38;100.00;99079.53;6322485;28;20463;-85
2023/04/15 06:12:53;;;;;;;6.00;2.33;;;;;;;9.67;100.00;99103.47;6305372;28;20055;-85
2023/04/15 06:15:53;;;;;;;2.88;1.98;;;;;;;9.86;99.15;99095.19;6309787;28;20055;-85
2023/04/15 06:18:57;;;;;;;3.03;1.85;;;;;;;10.15;99.46;99100.03;6321605;28;20516;-85
2023/04/15 06:21:58;;;;;;;3.13;1.67;;;;;;;10.19;94.30;99105.81;6303716;28;20404;-86
2023/04/15 06:24:59;;;;;;;3.38;1.95;;;;;;;10.20;95.15;99079.63;6320971;28;20039;-85
2023/04/15 06:27:59;;;;;;;2.97;1.70;;;;;;;10.43;93.94;99100.56;6324666;28;20931;-86
2023/04/15 06:31:00;;;;;;;4.35;2.15;;;;;;;10.81;93.91;99108.09;6325927;28;20558;-84
2023/04/15 06:34:01;;;;;;;7.97;4.75;;;;;;;10.98;93.12;99111.19;6329084;28;20046;-84
2023/04/15 06:37:02;;;;;;;14.00;3.60;;;;;;;11.25;91.77;99101.19;6347427;28;20184;-83
2023/04/15 06:40:04;;;;;;;4.15;1.20;;;;;;;11.23;83.72;99120.53;6328917;28;20055;-86
2023/04/15 06:43:05;;;;;;;1.40;0.90;;;;;;;11.32;82.51;99111.13;6346297;28;20065;-85
2023/04/15 06:46:06;;;;;;;1.40;1.00;;;;;;;11.16;82.48;99122.81;6328281;28;20055;-85
2023/04/15 06:49:09;;;;;;;1.10;0.90;;;;;;;11.25;84.51;99119.47;6327985;28;20097;-86
2023/04/15 06:52:10;;;;;;;5.53;1.13;;;;;;;11.66;86.03;99123.19;6326406;28;20044;-84
2023/04/15 06:55:11;;;;;;;1.67;1.20;;;;;;;11.80;81.39;99114.22;6328267;28;20447;-84
2023/04/15 06:58:12;;;;;;;2.30;1.52;;;;;;;11.82;82.25;99124.53;6328087;28;20058;-84
2023/04/15 07:01:15;;;;;;;2.50;1.00;;;;;;;12.05;80.62;99127.94;6324494;28;20048;-84
2023/04/15 07:04:16;;;;;;;1.45;1.17;;;;;;;12.09;77.84;99132.78;6347134;28;20043;-85
2023/04/15 07:07:20;;;;;;;1.20;1.00;;;;;;;12.28;76.23;99120.81;6326745;28;20496;-84
2023/04/15 07:10:20;;;;;;;1.50;1.10;;;;;;;12.29;75.58;99127.69;6310666;28;20043;-85
2023/04/15 07:13:21;;;;;;;3.33;0.90;;;;;;;12.23;76.96;99142.13;6327714;28;20044;-84
2023/04/15 07:16:25;;;;;;;2.30;1.15;;;;;;;12.35;77.01;99140.28;6310657;28;20052;-85
2023/04/15 07:19:28;;;;;;;1.25;1.00;;;;;;;12.40;77.76;99126.84;6302692;28;20052;-84
2023/04/15 07:22:29;;;;;;;0.88;0.60;;;;;;;12.45;75.25;99146.41;6303493;28;20056;-86
2023/04/15 07:25:30;;;;;;;1.30;1.13;;;;;;;12.31;75.98;99151.94;6306231;28;20047;-84
2023/04/15 07:28:31;;;;;;;1.52;1.30;;;;;;;12.66;74.58;99146.41;6349505;28;20130;-87
2023/04/15 07:31:32;;;;;;;1.30;0.80;;;;;;;12.64;72.77;99150.94;6333259;28;20058;-84
2023/04/15 07:34:32;;;;;;;1.90;1.10;;;;;;;12.39;75.24;99159.97;6332279;28;20096;-84
2023/04/15 07:37:33;;;;;;;0.77;0.75;;;;;;;12.35;78.02;99165.59;6327872;28;20419;-84
2023/04/15 07:40:34;;;;;;;1.67;0.93;;;;;;;12.24;77.16;99159.47;6352694;28;20047;-87
2023/04/15 07:43:38;;;;;;;2.25;1.00;;;;;;;12.37;77.49;99166.31;6334804;28;20079;-85
2023/04/15 07:46:39;;;;;;;1.08;0.93;;;;;;;12.37;78.47;99164.50;6333577;28;20055;-85
2023/04/15 07:49:42;;;;;;;1.27;1.00;;;;;;;12.34;79.36;99166.56;6332220;28;20047;-82
2023/04/15 07:52:43;;;;;;;1.17;0.93;;;;;;;12.73;79.79;99167.66;6332220;28;20264;-83
2023/04/15 07:55:44;;;;;;;1.13;0.67;;;;;;;12.73;75.42;99165.03;6328829;28;20054;-83
2023/04/15 07:58:45;;;;;;;1.05;0.98;;;;;;;13.04;74.88;99163.25;6328761;28;20044;-83
2023/04/15 08:01:48;;;;;;;1.23;1.13;;;;;;;12.74;75.10;99148.34;6306797;28;20135;-84
2023/04/15 08:04:49;;;;;;;0.98;0.80;;;;;;;13.40;73.34;99162.88;6313505;28;20052;-83
2023/04/15 08:07:50;;;;;;;0.95;0.90;;;;;;;13.60;71.77;99156.72;6350046;28;20048;-84
2023/04/15 08:10:51;;;;;;;5.70;2.03;;;;;;;14.03;71.20;99158.16;6331674;28;20048;-85
2023/04/15 08:13:52;;;;;;;3.15;1.50;;;;;;;13.74;69.63;99163.38;6330871;28;20051;-86
2023/04/15 08:16:53;;;;;;;7.43;4.68;;;;;;;13.43;71.47;99154.75;6331339;28;20559;-83
2023/04/15 08:19:54;;;;;;;2.20;1.60;;;;;;;13.62;77.28;99164.47;6331440;28;20052;-86
2023/04/15 08:22:55;;;;;;;2.55;1.40;;;;;;;13.48;75.26;99168.28;6333188;28;20035;-84
2023/04/15 08:25:56;;;;;;;4.78;2.38;;;;;;;13.34;77.07;99166.84;6332043;28;20077;-84
2023/04/15 08:29:00;;;;;;;1.67;1.37;;;;;;;13.84;77.10;99173.88;6330513;28;20715;-83
2023/04/15 08:32:03;;;;;;;2.65;1.75;;;;;;;14.00;75.64;99162.84;6332363;28;20051;-84
2023/04/15 08:35:04;;;;;;;3.38;1.80;;;;;;;14.31;75.31;99185.38;6331958;28;20122;-84
2023/04/15 08:38:05;;;;;;;2.78;1.73;;;;;;;14.29;74.78;99183.84;6331637;28;20120;-85
2023/04/15 08:41:29;;;;;;;1.90;1.55;;;;;;;13.70;77.78;99177.72;6332987;28;20057;-85
2023/04/15 08:44:33;;;;;;;3.50;1.55;;;;;;;13.54;78.06;99177.41;6299629;28;20502;-85
2023/04/15 08:47:38;;;;;;;2.97;2.10;;;;;;;13.69;79.55;99184.75;6330587;28;20085;-86
2023/04/15 08:50:39;;;;;;;3.75;2.20;;;;;;;13.89;77.92;99179.53;6332737;28;20076;-84
2023/04/15 08:53:46;;;;;;;2.65;2.30;;;;;;;14.11;76.01;99187.16;6332743;28;20105;-87
2023/04/15 08:56:47;;;;;;;1.75;1.65;;;;;;;14.50;73.48;99187.16;6330973;28;20065;-83
2023/04/15 08:59:51;;;;;;;4.38;2.30;;;;;;;14.95;69.84;99184.88;6330345;28;20051;-84
2023/04/15 09:02:52;;;;;;;2.10;1.90;;;;;;;14.84;73.94;99173.56;6350044;28;20043;-85
2023/04/15 09:05:53;;;;;;;2.43;1.97;;;;;;;14.84;71.03;99176.19;6332396;28;20059;-84
2023/04/15 09:08:57;;;;;;;3.75;2.30;;;;;;;14.41;73.34;99190.63;6331026;28;20055;-84
2023/04/15 09:12:00;;;;;;;2.25;1.90;;;;;;;14.20;73.06;99184.66;6330268;28;20047;-84
2023/04/15 09:15:02;;;;;;;3.75;1.92;;;;;;;14.04;73.05;99172.94;6330054;28;20075;-84
2023/04/15 09:18:07;;;;;;;2.38;1.73;;;;;;;13.63;73.94;99176.59;6330220;28;20039;-84
2023/04/15 09:21:11;;;;;;;2.75;1.98;;;;;;;13.55;74.50;99187.75;6330739;28;20552;-85
2023/04/15 09:24:12;;;;;;;2.03;1.60;;;;;;;13.61;74.90;99192.47;6338328;28;20139;-84
2023/04/15 09:27:16;;;;;;;2.30;1.65;;;;;;;13.63;78.55;99187.91;6306706;28;20054;-83
2023/04/15 09:30:17;;;;;;;2.20;1.65;;;;;;;13.67;78.88;99189.31;6330053;28;20051;-83
2023/04/15 09:33:18;;;;;;;2.97;2.05;;;;;;;14.47;74.31;99187.41;6307762;28;20044;-85
2023/04/15 09:36:21;;;;;;;1.77;1.40;;;;;;;14.36;72.21;99192.00;6306547;28;20097;-88
2023/04/15 09:39:22;;;;;;;2.10;1.35;;;;;;;15.69;66.21;99181.38;6324983;28;20121;-84
2023/04/15 09:42:24;;;;;;;3.45;1.48;;;;;;;15.93;62.07;99178.19;6306644;28;20052;-89
2023/04/15 09:45:25;;;;;;;2.63;1.00;;;;;;;16.61;62.10;99177.63;6324444;28;20093;-84
2023/04/15 09:48:26;;;;;;;2.05;1.05;;;;;;;16.88;58.25;99174.06;6305481;28;20055;-88
2023/04/15 09:51:34;;;;;;;2.28;1.23;;;;;;;16.63;59.62;99182.75;6306050;28;20044;-86
2023/04/15 09:54:37;;;;;;;1.55;0.70;;;;;;;15.20;56.73;99176.38;6305360;28;20492;-85
2023/04/15 09:57:40;;;;;;;0.70;0.55;;;;;;;15.11;58.58;99178.06;6306038;28;20050;-87
2023/04/15 10:00:41;;;;;;;5.15;0.90;;;;;;;14.91;58.12;99158.91;6314420;28;20044;-85
2023/04/15 10:03:44;;;;;;;2.25;0.95;;;;;;;15.75;57.49;99162.41;6330926;28;20072;-85
2023/04/15 10:06:45;;;;;;;0.60;0.60;;;;;;;16.31;57.39;99157.84;6330841;28;20048;-85
2023/04/15 10:09:48;;;;;;;0.98;0.80;;;;;;;16.37;56.22;99166.91;6349396;28;20055;-85
2023/04/15 10:12:51;;;;;;;3.17;0.75;;;;;;;16.29;55.89;99165.88;6329703;28;20047;-87
2023/04/15 10:16:04;;;;;;;1.10;0.75;;;;;;;15.60;55.15;99156.78;6304180;28;20117;-82
2023/04/15 10:19:06;;;;;;;4.15;0.85;;;;;;;15.71;54.57;99167.09;6303432;28;20105;-82
2023/04/15 10:22:08;;;;;;;0.40;0.40;;;;;;;16.18;53.88;99170.53;6303858;28;20526;-85
2023/04/15 10:25:15;;;;;;;0.32;0.32;;;;;;;16.83;52.04;99157.06;6310156;28;20593;-86
2023/04/15 10:28:16;;;;;;;0.85;0.75;;;;;;;16.30;52.80;99151.72;6313284;28;20411;-86
2023/04/15 10:31:18;;;;;;;0.80;0.67;;;;;;;16.18;56.49;99150.31;6347343;28;20083;-87
2023/04/15 10:34:20;;;;;;;1.58;0.65;;;;;;;16.67;53.25;99157.75;6329771;28;20783;-81
2023/04/15 10:37:34;;;;;;;0.57;0.50;;;;;;;15.85;54.09;99157.88;6329231;28;20108;-84
2023/04/15 10:40:35;;;;;;;2.30;0.90;;;;;;;15.45;55.11;99160.91;6327613;28;20405;-86
2023/04/15 10:43:36;;;;;;;1.77;1.35;;;;;;;15.63;55.19;99163.56;6304618;28;20048;-81
2023/04/15 10:46:36;;;;;;;2.25;1.35;;;;;;;15.62;56.50;99165.34;6314481;28;20047;-83
2023/04/15 10:49:46;;;;;;;0.98;0.88;;;;;;;15.26;56.96;99159.19;6319250;28;20138;-82
2023/04/15 10:52:51;;;;;;;1.38;1.00;;;;;;;14.68;57.21;99168.06;6327188;28;20252;-85
2023/04/15 10:55:52;;;;;;;0.90;0.70;;;;;;;15.24;58.08;99150.63;6314226;28;20051;-85
2023/04/15 10:58:53;;;;;;;1.17;1.08;;;;;;;15.19;56.68;99153.66;6321547;28;20067;-83
2023/04/15 11:02:02;;;;;;;8.52;4.28;;;;;;;15.19;57.59;99163.34;6327762;28;20043;-84
2023/04/15 11:05:03;;;;;;;1.30;0.98;;;;;;;15.94;55.88;99163.22;6319271;28;20062;-83
2023/04/15 11:08:04;;;;;;;1.58;1.02;;;;;;;16.72;55.28;99155.50;6326161;28;20048;-83
2023/04/15 11:11:05;;;;;;;2.30;0.70;;;;;;;17.25;53.26;99156.28;6302248;28;20048;-84
2023/04/15 11:14:14;;;;;;;1.33;0.68;;;;;;;17.15;51.68;99163.50;6302359;28;20040;-82
2023/04/15 11:17:27;;;;;;;1.38;1.08;;;;;;;16.70;50.19;99168.81;6327776;28;20047;-82
2023/04/15 11:20:28;;;;;;;0.40;0.40;;;;;;;16.59;50.10;99171.69;6322382;28;20048;-81
2023/04/15 11:23:32;;;;;;;1.40;0.50;;;;;;;17.22;50.11;99189.06;6302209;28;20055;-81
2023/04/15 11:26:33;;;;;;;4.28;2.55;;;;;;;17.16;48.32;99173.88;6340688;28;20093;-84
2023/04/15 11:29:34;;;;;;;0.70;0.70;;;;;;;17.01;47.84;99175.47;6307219;28;20056;-80
2023/04/15 11:32:35;;;;;;;0.85;0.75;;;;;;;16.02;46.75;99181.72;6315461;28;20047;-84
2023/04/15 11:35:35;;;;;;;1.33;0.73;;;;;;;15.57;47.45;99159.72;6328675;28;20052;-84
2023/04/15 11:38:36;;;;;;;1.58;1.08;;;;;;;15.50;50.51;99174.41;6346263;28;20108;-81
2023/04/15 11:41:37;;;;;;;1.50;0.63;;;;;;;15.56;50.62;99183.53;6327564;28;20437;-81
2023/04/15 11:44:38;;;;;;;3.50;0.70;;;;;;;15.17;51.40;99174.00;6345042;28;20082;-81
2023/04/15 11:47:42;;;;;;;1.00;0.70;;;;;;;15.03;51.47;99174.47;6327942;28;20055;-86
2023/04/15 11:50:44;;;;;;;0.40;0.40;;;;;;;15.45;51.47;99180.13;6325159;28;20044;-81
2023/04/15 11:53:49;;;;;;;0.50;0.50;;;;;;;16.41;50.83;99182.28;6311234;28;20427;-85
2023/04/15 11:56:52;;;;;;;1.30;0.50;;;;;;;17.01;49.44;99178.91;6320395;28;20325;-82
2023/04/15 11:59:54;;;;;;;0.77;0.57;;;;;;;16.98;48.91;99188.94;6301681;28;20599;-85
2023/04/15 12:03:11;;;;;;;3.92;0.70;;;;;;;16.92;49.20;99187.75;6313583;28;20061;-85
2023/04/15 12:06:12;;;;;;;0.70;0.70;;;;;;;17.28;47.86;99188.44;6309013;28;20502;-89
2023/04/15 12:09:14;;;;;;;2.83;0.70;;;;;;;17.12;47.60;99176.00;6325058;28;20051;-83
2023/04/15 12:12:18;;;;;;;0.55;0.55;;;;;;;16.72;47.97;99189.75;6331288;28;20066;-87
2023/04/15 12:15:23;;;;;;;0.55;0.50;;;;;;;17.23;49.00;99185.44;6326680;28;20047;-87
2023/04/15 12:18:24;;;;;;;0.85;0.60;;;;;;;17.70;48.46;99197.34;6308355;28;20075;-95
2023/04/15 12:21:28;;;;;;;8.20;0.95;;;;;;;17.57;48.62;99186.41;6321765;28;20052;-91
2023/04/15 12:24:33;;;;;;;1.25;0.55;;;;;;;17.52;47.79;99192.16;6331719;28;20120;-82
2023/04/15 12:27:35;;;;;;;43.90;3.83;;;;;;;17.79;47.73;99190.25;6332161;28;20048;-87
2023/04/15 12:30:35;;;;;;;;;;;;;;;17.70;48.43;99190.22;6350644;28;20056;-86
2023/04/15 12:33:37;;;;;;;2.28;0.70;;;;;;;16.85;46.16;99178.81;6331585;28;20394;-83
2023/04/15 12:36:37;;;;;;;2.33;0.80;;;;;;;16.84;47.18;99185.91;6332115;28;20055;-88
2023/04/15 12:39:41;;;;;;;6.97;0.88;;;;;;;17.26;47.75;99192.22;6332889;28;20040;-86
2023/04/15 12:42:42;;;;;;;10.88;1.27;;;;;;;17.48;47.88;99188.19;6332748;28;20048;-81
2023/04/15 12:45:43;;;;;;;6.97;2.25;;;;;;;17.18;48.85;99187.72;6332042;28;20052;-83
2023/04/15 12:48:43;;;;;;;0.65;0.43;;;;;;;16.83;46.79;99193.97;6332157;28;20087;-86
2023/04/15 12:51:44;;;;;;;1.77;0.60;;;;;;;16.21;47.15;99189.50;6350667;28;20051;-89
2023/04/15 12:54:45;;;;;;;0.40;0.40;;;;;;;15.94;47.52;99186.91;6329841;28;20036;-85
2023/04/15 12:57:46;;;;;;;5.15;1.10;;;;;;;16.07;49.33;99198.72;6331933;28;20066;-88
2023/04/15 13:00:48;;;;;;;0.95;0.63;;;;;;;16.07;49.03;99197.91;6331260;28;20100;-82
2023/04/15 13:03:49;;;;;;;2.35;0.90;;;;;;;16.78;47.83;99212.84;6329726;28;20518;-83
2023/04/15 13:06:50;;;;;;;20.87;3.30;;;;;;;17.10;47.43;99200.88;6343124;28;20056;-81
2023/04/15 13:09:51;;;;;;;2.95;0.73;;;;;;;16.94;47.14;99206.84;6316870;28;20303;-82
2023/04/15 13:12:52;;;;;;;0.40;0.40;;;;;;;16.81;46.92;99209.91;6327881;28;20054;-85
2023/04/15 13:15:53;;;;;;;1.35;0.60;;;;;;;15.86;47.73;99217.44;6331466;28;20100;-85
2023/04/15 13:18:54;;;;;;;2.92;1.17;;;;;;;15.38;48.03;99210.59;6330187;28;20047;-81
2023/04/15 13:21:55;;;;;;;0.95;0.60;;;;;;;15.29;51.60;99228.03;6331848;28;20054;-84
2023/04/15 13:24:56;;;;;;;0.90;0.60;;;;;;;14.67;58.73;99216.31;6330296;28;20048;-83
2023/04/15 13:27:57;;;;;;;0.90;0.50;;;;;;;14.79;58.73;99217.00;6330584;28;20096;-82
2023/04/15 13:30:59;;;;;;;7.03;1.67;;;;;;;15.10;59.15;99218.44;6330469;28;20043;-83
2023/04/15 13:34:00;;;;;;;;;;;;;;;15.16;57.79;99229.34;6330347;28;20453;-81
2023/04/15 13:37:08;;;;;;;12.95;6.40;;;;;;;15.25;56.51;99224.03;6329997;28;19964;-84
2023/04/15 13:40:09;;;;;;;1.75;0.60;;;;;;;15.15;57.20;99225.06;6329678;28;20445;-82
2023/04/15 13:43:11;;;;;;;1.40;0.85;;;;;;;15.10;56.85;99230.75;6329356;28;20047;-80
2023/04/15 13:46:12;;;;;;;2.00;1.10;;;;;;;15.06;56.53;99232.81;6311821;28;20052;-81
2023/04/15 13:49:12;;;;;;;2.38;0.93;;;;;;;15.11;56.33;99232.38;6304859;28;20190;-82
2023/04/15 13:52:13;;;;;;;13.25;5.55;;;;;;;15.08;55.74;99240.56;6304203;28;20512;-84
2023/04/15 13:55:15;;;;;;;1.50;1.17;;;;;;;15.03;55.66;99250.66;6314422;28;20044;-82
2023/04/15 13:58:15;;;;;;;2.42;1.35;;;;;;;14.76;56.92;99248.78;6322253;28;20055;-83
2023/04/15 14:01:18;;;;;;;2.53;1.90;;;;;;;14.74;55.34;99264.66;6340217;28;20044;-84
2023/04/15 14:04:19;;;;;;;0.40;0.40;;;;;;;14.25;53.37;99279.56;6325822;28;20040;-84
2023/04/15 14:07:20;;;;;;;0.85;0.70;;;;;;;13.30;59.74;99280.72;6324061;28;20292;-80
2023/04/15 14:10:21;;;;;;;1.50;0.82;;;;;;;12.94;66.25;99276.78;6308051;28;20055;-82
2023/04/15 14:13:22;;;;;;;2.40;0.82;;;;;;;13.28;71.91;99280.84;6344633;28;20047;-83
2023/04/15 14:16:23;;;;;;;3.75;0.88;;;;;;;13.69;68.48;99270.41;6332194;28;20051;-83